createdAt,value
2023-12-05T00:02:40.075Z,998.89
2023-12-05T00:05:49.483Z,998.82
2023-12-05T00:08:57.052Z,998.71
2023-12-05T00:12:04.802Z,998.73
2023-12-05T00:15:14.218Z,998.69
2023-12-05T00:18:22.005Z,998.59
2023-12-05T00:21:30.129Z,998.54
2023-12-05T00:24:39.308Z,998.49
2023-12-05T00:27:46.795Z,998.57
2023-12-05T00:30:54.468Z,998.54
2023-12-05T00:34:01.724Z,998.49
2023-12-05T00:37:02.547Z,998.33
2023-12-05T00:40:10.596Z,998.35
2023-12-05T00:43:17.662Z,998.36
2023-12-05T00:46:27.352Z,998.29
2023-12-05T00:49:36.416Z,998.33
2023-12-05T00:52:44.261Z,998.28
2023-12-05T00:55:53.971Z,998.36
2023-12-05T00:59:01.410Z,998.41
2023-12-05T01:02:09.447Z,998.26
2023-12-05T01:05:18.296Z,998.23
2023-12-05T01:08:26.701Z,998.25
2023-12-05T01:11:34.332Z,998.32
2023-12-05T01:14:42.543Z,998.24
2023-12-05T01:17:52.581Z,998.27
2023-12-05T01:20:59.734Z,998.22
2023-12-05T01:24:07.309Z,998.24
2023-12-05T01:27:16.909Z,998.14
2023-12-05T01:30:24.298Z,998.14
2023-12-05T01:33:31.868Z,998.12
2023-12-05T01:36:41.364Z,998.19
2023-12-05T01:39:48.667Z,998.05
2023-12-05T01:42:56.170Z,998.07
2023-12-05T01:46:05.565Z,997.97
2023-12-05T01:49:18.649Z,998.02
2023-12-05T01:52:18.201Z,998.11
2023-12-05T01:55:27.442Z,998.07
2023-12-05T01:58:35.100Z,998.07
2023-12-05T02:01:43.101Z,997.94
2023-12-05T02:04:51.203Z,997.98
2023-12-05T02:08:00.280Z,997.95
2023-12-05T02:11:08.085Z,997.95
2023-12-05T02:14:16.456Z,998.03
2023-12-05T02:17:25.068Z,997.98
2023-12-05T02:20:32.894Z,997.99
2023-12-05T02:23:41.094Z,997.97
2023-12-05T02:26:49.868Z,997.98
2023-12-05T02:29:58.199Z,997.90
2023-12-05T02:33:06.082Z,997.83
2023-12-05T02:36:14.750Z,997.80
2023-12-05T02:39:22.420Z,997.84
2023-12-05T02:42:30.196Z,997.66
2023-12-05T02:45:37.472Z,997.74
2023-12-05T02:48:47.520Z,997.64
2023-12-05T02:51:55.169Z,997.70
2023-12-05T02:55:03.797Z,997.58
2023-12-05T02:58:12.858Z,997.55
2023-12-05T03:01:22.041Z,997.50
2023-12-05T03:04:29.558Z,997.44
2023-12-05T03:07:39.446Z,997.46
2023-12-05T03:10:55.101Z,997.44
2023-12-05T03:13:51.807Z,997.49
2023-12-05T03:17:01.343Z,997.47
2023-12-05T03:20:09.462Z,997.49
2023-12-05T03:23:16.826Z,997.51
2023-12-05T03:26:24.338Z,997.46
2023-12-05T03:29:33.269Z,997.38
2023-12-05T03:32:41.478Z,997.38
2023-12-05T03:35:48.376Z,997.35
2023-12-05T03:38:58.046Z,997.33
2023-12-05T03:42:05.298Z,997.32
2023-12-05T03:45:13.204Z,997.42
2023-12-05T03:48:22.048Z,997.38
2023-12-05T03:51:29.649Z,997.25
2023-12-05T03:54:37.360Z,997.27
2023-12-05T03:57:46.969Z,997.29
2023-12-05T04:00:54.870Z,997.36
2023-12-05T04:04:02.855Z,997.26
2023-12-05T04:07:10.713Z,997.35
2023-12-05T04:10:19.208Z,997.36
2023-12-05T04:13:29.999Z,997.33
2023-12-05T04:16:27.920Z,997.30
2023-12-05T04:19:37.462Z,997.39
2023-12-05T04:22:44.978Z,997.43
2023-12-05T04:25:52.956Z,997.23
2023-12-05T04:29:02.369Z,997.16
2023-12-05T04:32:09.864Z,997.30
2023-12-05T04:35:17.677Z,997.29
2023-12-05T04:38:27.324Z,997.30
2023-12-05T04:41:35.596Z,997.27
2023-12-05T04:44:43.153Z,997.24
2023-12-05T04:47:50.424Z,997.30
2023-12-05T04:50:59.330Z,997.18
2023-12-05T04:54:07.998Z,997.13
2023-12-05T04:57:15.603Z,997.23
2023-12-05T05:00:24.962Z,997.12
2023-12-05T05:03:33.310Z,997.19
2023-12-05T05:06:40.875Z,997.20
2023-12-05T05:09:50.022Z,997.13
2023-12-05T05:12:58.439Z,997.07
2023-12-05T05:16:06.037Z,997.09
2023-12-05T05:19:16.293Z,997.05
2023-12-05T05:22:23.885Z,997.11
2023-12-05T05:25:31.306Z,997.04
2023-12-05T05:28:40.569Z,997.03
2023-12-05T05:31:47.732Z,997.05
2023-12-05T05:34:56.629Z,997.06
2023-12-05T05:38:05.329Z,997.09
2023-12-05T05:41:14.377Z,997.10
2023-12-05T05:44:21.618Z,997.14
2023-12-05T05:47:29.118Z,997.02
2023-12-05T05:50:38.714Z,997.10
2023-12-05T05:53:46.864Z,997.12
2023-12-05T05:56:53.994Z,997.08
2023-12-05T06:00:03.366Z,997.06
2023-12-05T06:03:10.602Z,997.04
2023-12-05T06:06:18.669Z,997.09
2023-12-05T06:09:27.708Z,997.13
2023-12-05T06:12:35.124Z,997.05
2023-12-05T06:15:43.560Z,997.11
2023-12-05T06:18:51.040Z,997.04
2023-12-05T06:22:00.296Z,997.10
2023-12-05T06:25:08.284Z,997.04
2023-12-05T06:28:15.529Z,997.09
2023-12-05T06:31:24.528Z,997.06
2023-12-05T06:34:32.487Z,997.01
2023-12-05T06:37:39.961Z,997.04
2023-12-05T06:40:49.357Z,996.94
2023-12-05T06:43:57.436Z,996.96
2023-12-05T06:47:04.884Z,996.96
2023-12-05T06:50:14.903Z,997.00
2023-12-05T06:53:22.742Z,996.98
2023-12-05T06:56:29.768Z,997.04
2023-12-05T06:59:37.536Z,996.95
2023-12-05T07:02:46.277Z,997.04
2023-12-05T07:05:53.594Z,997.07
2023-12-05T07:09:01.536Z,997.12
2023-12-05T07:12:10.861Z,997.11
2023-12-05T07:15:19.101Z,997.08
2023-12-05T07:18:27.022Z,997.11
2023-12-05T07:21:35.909Z,997.15
2023-12-05T07:24:43.730Z,997.05
2023-12-05T07:27:51.852Z,997.08
2023-12-05T07:31:01.242Z,997.25
2023-12-05T07:34:08.658Z,997.21
2023-12-05T07:37:16.348Z,997.25
2023-12-05T07:40:25.575Z,997.22
2023-12-05T07:43:32.605Z,997.24
2023-12-05T07:46:40.729Z,997.19
2023-12-05T07:49:48.742Z,997.23
2023-12-05T07:52:57.777Z,997.33
2023-12-05T07:56:06.729Z,997.24
2023-12-05T07:59:14.654Z,997.34
2023-12-05T08:02:23.689Z,997.33
2023-12-05T08:05:31.070Z,997.36
2023-12-05T08:08:38.335Z,997.33
2023-12-05T08:11:47.703Z,997.39
2023-12-05T08:14:55.753Z,997.34
2023-12-05T08:18:03.051Z,997.47
2023-12-05T08:21:12.289Z,997.42
2023-12-05T08:24:19.867Z,997.39
2023-12-05T08:27:27.534Z,997.39
2023-12-05T08:30:35.982Z,997.35
2023-12-05T08:33:44.553Z,997.31
2023-12-05T08:36:52.577Z,997.37
2023-12-05T08:40:00.348Z,997.30
2023-12-05T08:43:10.086Z,997.33
2023-12-05T08:46:17.586Z,997.27
2023-12-05T08:49:25.490Z,997.28
2023-12-05T08:52:34.560Z,997.43
2023-12-05T08:55:42.058Z,997.38
2023-12-05T08:58:49.567Z,997.36
2023-12-05T09:01:58.853Z,997.48
2023-12-05T09:05:06.176Z,997.45
2023-12-05T09:08:14.814Z,997.52
2023-12-05T09:11:23.159Z,997.48
2023-12-05T09:14:32.187Z,997.46
2023-12-05T09:17:39.744Z,997.48
2023-12-05T09:20:48.036Z,997.52
2023-12-05T09:23:56.844Z,997.48
2023-12-05T09:27:05.134Z,997.57
2023-12-05T09:30:13.129Z,997.68
2023-12-05T09:33:21.706Z,997.63
2023-12-05T09:36:29.600Z,997.64
2023-12-05T09:39:37.245Z,997.62
2023-12-05T09:42:46.200Z,997.60
2023-12-05T09:45:54.112Z,997.64
2023-12-05T09:49:02.897Z,997.64
2023-12-05T09:52:12.009Z,997.60
2023-12-05T09:55:20.133Z,997.65
2023-12-05T09:58:28.319Z,997.65
2023-12-05T10:01:36.663Z,997.54
2023-12-05T10:04:46.477Z,997.52
2023-12-05T10:07:54.663Z,997.52
2023-12-05T10:11:02.371Z,997.50
2023-12-05T10:14:11.365Z,997.53
2023-12-05T10:17:19.675Z,997.51
2023-12-05T10:20:26.971Z,997.55
2023-12-05T10:23:37.242Z,997.48
2023-12-05T10:26:45.084Z,997.49
2023-12-05T10:29:52.656Z,997.47
2023-12-05T10:33:02.204Z,997.56
2023-12-05T10:36:10.084Z,997.53
2023-12-05T10:39:17.809Z,997.44
2023-12-05T10:42:25.143Z,997.46
2023-12-05T10:45:34.255Z,997.46
2023-12-05T10:48:42.090Z,997.37
2023-12-05T10:51:48.925Z,997.40
2023-12-05T10:54:58.918Z,997.33
2023-12-05T10:58:05.921Z,997.32
2023-12-05T11:01:13.548Z,997.29
2023-12-05T11:04:23.085Z,997.22
2023-12-05T11:07:31.841Z,997.25
2023-12-05T11:10:39.243Z,997.22
2023-12-05T11:13:48.290Z,997.23
2023-12-05T11:16:55.318Z,997.25
2023-12-05T11:20:03.125Z,997.23
2023-12-05T11:23:10.337Z,997.21
2023-12-05T11:26:19.914Z,997.29
2023-12-05T11:29:27.401Z,997.31
2023-12-05T11:32:34.811Z,997.27
2023-12-05T11:35:39.651Z,997.31
2023-12-05T11:38:47.624Z,997.25
2023-12-05T11:41:54.520Z,997.31
2023-12-05T11:45:05.031Z,997.31
2023-12-05T11:48:13.409Z,997.32
2023-12-05T11:51:20.340Z,997.38
2023-12-05T11:54:29.385Z,997.28
2023-12-05T11:57:37.236Z,997.37
2023-12-05T12:00:44.726Z,997.33
2023-12-05T12:03:52.492Z,997.34
2023-12-05T12:07:01.889Z,997.25
2023-12-05T12:10:09.565Z,997.25
2023-12-05T12:13:16.959Z,997.22
2023-12-05T12:16:26.135Z,997.34
2023-12-05T12:19:34.088Z,997.36
2023-12-05T12:22:41.306Z,997.33
2023-12-05T12:25:50.602Z,997.35
2023-12-05T12:28:59.518Z,997.36
2023-12-05T12:32:08.216Z,997.39
2023-12-05T12:35:17.200Z,997.33
2023-12-05T12:38:24.473Z,997.34
2023-12-05T12:44:42.015Z,997.40
2023-12-05T12:47:49.763Z,997.39
2023-12-05T12:50:57.232Z,997.43
2023-12-05T12:54:05.067Z,997.53
2023-12-05T12:57:13.428Z,997.52
2023-12-05T13:00:31.993Z,997.48
2023-12-05T13:03:26.877Z,997.44
2023-12-05T13:06:35.641Z,997.48
2023-12-05T13:09:43.929Z,997.45
2023-12-05T13:12:50.713Z,997.46
2023-12-05T13:16:00.169Z,997.49
2023-12-05T13:19:08.366Z,997.42
2023-12-05T13:22:16.192Z,997.45
2023-12-05T13:25:32.092Z,997.52
2023-12-05T13:28:29.636Z,997.47
2023-12-05T13:31:37.912Z,997.47
2023-12-05T13:34:45.374Z,997.47
2023-12-05T13:37:55.157Z,997.48
2023-12-05T13:41:02.538Z,997.44
2023-12-05T13:44:10.287Z,997.39
2023-12-05T13:47:19.400Z,997.43
2023-12-05T13:50:55.132Z,997.47
2023-12-05T13:54:05.270Z,997.50
2023-12-05T13:57:14.625Z,997.49
2023-12-05T14:00:22.311Z,997.54
2023-12-05T14:03:29.808Z,997.51
2023-12-05T14:06:38.464Z,997.46
2023-12-05T14:09:46.870Z,997.53
2023-12-05T14:12:54.276Z,997.52
2023-12-05T14:16:03.566Z,997.50
2023-12-05T14:19:11.132Z,997.46
2023-12-05T14:22:18.961Z,997.53
2023-12-05T14:25:27.303Z,997.54
2023-12-05T14:28:36.808Z,997.59
2023-12-05T14:31:44.371Z,997.68
2023-12-05T14:34:51.879Z,997.68
2023-12-05T14:38:01.484Z,997.73
2023-12-05T14:41:08.583Z,997.75
2023-12-05T14:44:16.150Z,997.79
2023-12-05T14:47:25.007Z,997.83
2023-12-05T14:50:32.866Z,997.78
2023-12-05T14:53:40.423Z,997.82
2023-12-05T14:56:50.462Z,997.84
2023-12-05T14:59:57.601Z,997.85
2023-12-05T15:03:05.522Z,997.90
2023-12-05T15:06:13.167Z,997.89
2023-12-05T15:09:23.051Z,997.91
2023-12-05T15:12:31.094Z,997.84
2023-12-05T15:15:39.746Z,997.85
2023-12-05T15:18:48.329Z,997.93
2023-12-05T15:21:56.213Z,998.01
2023-12-05T15:25:04.270Z,997.99
2023-12-05T15:28:13.633Z,998.02
2023-12-05T15:31:21.333Z,998.03
2023-12-05T15:34:29.098Z,998.06
2023-12-05T15:37:37.635Z,998.10
2023-12-05T15:40:45.806Z,998.09
2023-12-05T15:43:54.541Z,998.07
2023-12-05T15:47:01.745Z,998.15
2023-12-05T15:50:10.928Z,998.13
2023-12-05T15:53:18.498Z,998.07
2023-12-05T15:56:26.532Z,998.12
2023-12-05T15:59:35.759Z,998.14
2023-12-05T16:02:43.305Z,998.07
2023-12-05T16:05:51.114Z,998.17
2023-12-05T16:09:00.518Z,998.14
2023-12-05T16:12:08.258Z,998.12
2023-12-05T16:15:16.027Z,998.16
2023-12-05T16:18:25.082Z,998.15
2023-12-05T16:21:32.552Z,998.19
2023-12-05T16:24:40.391Z,998.22
2023-12-05T16:27:49.104Z,998.25
2023-12-05T16:30:56.538Z,998.34
2023-12-05T16:34:03.530Z,998.30
2023-12-05T16:37:11.556Z,998.29
2023-12-05T16:40:20.369Z,998.28
2023-12-05T16:43:27.293Z,998.28
2023-12-05T16:46:35.069Z,998.32
2023-12-05T16:49:44.592Z,998.30
2023-12-05T16:52:52.051Z,998.29
2023-12-05T16:56:00.280Z,998.39
2023-12-05T16:59:18.180Z,998.37
2023-12-05T17:02:14.115Z,998.39
2023-12-05T17:05:21.695Z,998.35
2023-12-05T17:08:31.808Z,998.37
2023-12-05T17:11:39.172Z,998.29
2023-12-05T17:14:46.444Z,998.34
2023-12-05T17:17:54.443Z,998.48
2023-12-05T17:21:02.887Z,998.48
2023-12-05T17:24:11.116Z,998.41
2023-12-05T17:27:19.055Z,998.48
2023-12-05T17:30:27.998Z,998.45
2023-12-05T17:33:35.978Z,998.51
2023-12-05T17:36:43.984Z,998.57
2023-12-05T17:39:52.633Z,998.56
2023-12-05T17:43:00.654Z,998.53
2023-12-05T17:46:08.145Z,998.59
2023-12-05T17:49:17.192Z,998.65
2023-12-05T17:52:24.752Z,998.73
2023-12-05T17:55:32.992Z,998.74
2023-12-05T17:58:40.391Z,998.71
2023-12-05T18:01:49.808Z,998.76
2023-12-05T18:04:57.254Z,998.78
2023-12-05T18:08:08.496Z,998.80
2023-12-05T18:11:07.469Z,998.78
2023-12-05T18:14:14.789Z,998.71
2023-12-05T18:17:22.313Z,998.79
2023-12-05T18:20:22.486Z,998.70
2023-12-05T18:23:30.586Z,998.77
2023-12-05T18:26:38.009Z,998.75
2023-12-05T18:29:47.446Z,998.78
2023-12-05T18:32:55.393Z,998.75
2023-12-05T18:36:02.417Z,998.76
2023-12-05T18:39:10.509Z,998.85
2023-12-05T18:42:19.535Z,998.81
2023-12-05T18:45:27.434Z,998.80
2023-12-05T18:48:35.680Z,998.82
2023-12-05T18:51:44.883Z,998.83
2023-12-05T18:54:52.915Z,998.85
2023-12-05T18:58:00.281Z,998.85
2023-12-05T19:01:09.347Z,998.88
2023-12-05T19:04:16.974Z,998.93
2023-12-05T19:07:27.815Z,998.93
2023-12-05T19:10:27.039Z,998.91
2023-12-05T19:13:34.866Z,998.97
2023-12-05T19:16:43.385Z,998.94
2023-12-05T19:19:51.160Z,998.96
2023-12-05T19:23:01.031Z,998.99
2023-12-05T19:26:08.570Z,999.03
2023-12-05T19:29:15.838Z,999.02
2023-12-05T19:32:24.950Z,999.06
2023-12-05T19:35:32.382Z,999.04
2023-12-05T19:38:40.067Z,999.10
2023-12-05T19:41:48.550Z,999.13
2023-12-05T19:44:56.706Z,999.09
2023-12-05T19:48:04.402Z,999.13
2023-12-05T19:51:13.638Z,999.18
2023-12-05T19:54:21.416Z,999.20
2023-12-05T19:57:28.817Z,999.15
2023-12-05T20:00:36.271Z,999.09
2023-12-05T20:03:46.123Z,999.15
2023-12-05T20:06:53.066Z,999.20
2023-12-05T20:10:00.905Z,999.22
2023-12-05T20:13:09.885Z,999.34
2023-12-05T20:16:17.719Z,999.34
2023-12-05T20:19:25.279Z,999.23
2023-12-05T20:22:35.472Z,999.28
2023-12-05T20:25:42.375Z,999.28
2023-12-05T20:28:50.171Z,999.32
2023-12-05T20:31:58.925Z,999.26
2023-12-05T20:35:06.940Z,999.23
2023-12-05T20:38:14.771Z,999.30
2023-12-05T20:41:22.570Z,999.24
2023-12-05T20:44:31.097Z,999.26
2023-12-05T20:47:38.813Z,999.16
2023-12-05T20:50:46.980Z,999.21
2023-12-05T20:53:55.455Z,999.19
2023-12-05T20:57:03.681Z,999.24
2023-12-05T21:00:11.538Z,999.27
2023-12-05T21:03:20.395Z,999.29
2023-12-05T21:06:27.748Z,999.30
2023-12-05T21:09:35.851Z,999.25
2023-12-05T21:12:44.700Z,999.30
2023-12-05T21:15:52.520Z,999.34
2023-12-05T21:19:00.631Z,999.31
2023-12-05T21:22:10.177Z,999.36
2023-12-05T21:25:18.313Z,999.38
2023-12-05T21:28:26.344Z,999.36
2023-12-05T21:31:33.949Z,999.39
2023-12-05T21:34:43.883Z,999.39
2023-12-05T21:37:51.967Z,999.39
2023-12-05T21:40:58.895Z,999.42
2023-12-05T21:44:08.111Z,999.33
2023-12-05T21:47:15.826Z,999.46
2023-12-05T21:50:23.191Z,999.49
2023-12-05T21:53:33.570Z,999.51
2023-12-05T21:56:32.803Z,999.49
2023-12-05T21:59:39.900Z,999.48
2023-12-05T22:02:48.595Z,999.52
2023-12-05T22:05:55.957Z,999.49
2023-12-05T22:09:03.373Z,999.54
2023-12-05T22:12:11.783Z,999.59
2023-12-05T22:15:21.232Z,999.64
2023-12-05T22:18:29.016Z,999.67
2023-12-05T22:21:37.207Z,999.65
2023-12-05T22:24:46.498Z,999.74
2023-12-05T22:27:54.805Z,999.74
2023-12-05T22:31:02.389Z,999.73
2023-12-05T22:34:14.509Z,999.72
2023-12-05T22:37:13.539Z,999.79
2023-12-05T22:40:20.672Z,999.77
2023-12-05T22:43:29.725Z,999.77
2023-12-05T22:46:36.990Z,999.79
2023-12-05T22:49:45.287Z,999.82
2023-12-05T22:52:52.163Z,999.89
2023-12-05T22:56:01.556Z,999.84
2023-12-05T22:59:08.986Z,999.82
2023-12-05T23:02:17.333Z,999.82
2023-12-05T23:05:26.230Z,999.86
2023-12-05T23:08:33.948Z,999.78
2023-12-05T23:11:40.904Z,999.81
2023-12-05T23:14:50.398Z,999.85
2023-12-05T23:17:58.011Z,999.78
2023-12-05T23:21:05.472Z,999.79
2023-12-05T23:24:13.826Z,999.77
2023-12-05T23:27:21.735Z,999.82
2023-12-05T23:30:29.111Z,999.76
2023-12-05T23:33:36.472Z,999.78
2023-12-05T23:36:46.111Z,999.69
2023-12-05T23:39:53.719Z,999.77
2023-12-05T23:43:02.394Z,999.79
2023-12-05T23:46:11.588Z,999.73
2023-12-05T23:49:18.826Z,999.74
2023-12-05T23:52:26.957Z,999.70
2023-12-05T23:55:35.656Z,999.75
2023-12-05T23:58:43.423Z,999.70
